createdAt,value
2018-08-18T00:00:28.083Z,18.74
2018-08-18T00:03:52.517Z,18.67
2018-08-18T00:07:17.212Z,18.60
2018-08-18T00:10:41.855Z,18.42
2018-08-18T00:14:07.356Z,18.49
2018-08-18T00:17:31.824Z,18.54
2018-08-18T00:20:56.279Z,18.34
2018-08-18T00:24:21.783Z,18.25
2018-08-18T00:27:46.306Z,18.44
2018-08-18T00:31:10.721Z,18.24
2018-08-18T00:34:40.125Z,18.18
2018-08-18T00:38:04.629Z,18.12
2018-08-18T00:41:31.017Z,18.08
2018-08-18T00:44:55.641Z,18.19
2018-08-18T00:48:20.068Z,18.16
2018-08-18T00:51:45.093Z,18.32
2018-08-18T00:55:09.787Z,18.34
2018-08-18T00:58:34.309Z,18.31
2018-08-18T01:01:58.995Z,18.22
2018-08-18T01:05:23.603Z,18.12
2018-08-18T01:08:48.830Z,18.23
2018-08-18T01:12:13.692Z,18.32
2018-08-18T01:15:38.707Z,18.32
2018-08-18T01:19:03.100Z,18.32
2018-08-18T01:22:27.535Z,18.29
2018-08-18T01:25:51.971Z,18.25
2018-08-18T01:29:17.833Z,18.59
2018-08-18T01:32:42.239Z,18.65
2018-08-18T01:36:06.844Z,18.58
2018-08-18T01:39:31.269Z,18.44
2018-08-18T01:42:55.711Z,18.22
2018-08-18T01:46:20.179Z,18.48
2018-08-18T01:49:44.619Z,18.10
2018-08-18T01:53:09.039Z,18.15
2018-08-18T01:56:33.418Z,18.09
2018-08-18T01:59:57.877Z,17.92
2018-08-18T02:03:22.308Z,17.88
2018-08-18T02:06:46.767Z,17.91
2018-08-18T02:10:11.186Z,17.78
2018-08-18T02:13:35.606Z,17.68
2018-08-18T02:17:30.562Z,17.71
2018-08-18T02:20:54.972Z,17.52
2018-08-18T02:24:19.381Z,17.33
2018-08-18T02:27:43.751Z,17.31
2018-08-18T02:31:08.184Z,17.10
2018-08-18T02:34:32.584Z,17.13
2018-08-18T02:37:56.984Z,17.02
2018-08-18T02:41:21.393Z,16.86
2018-08-18T02:44:45.839Z,16.82
2018-08-18T02:48:16.345Z,16.87
2018-08-18T02:51:40.760Z,16.76
2018-08-18T02:55:07.595Z,16.59
2018-08-18T02:58:32.006Z,16.56
2018-08-18T03:01:56.424Z,16.53
2018-08-18T03:05:20.870Z,16.49
2018-08-18T03:08:45.283Z,16.52
2018-08-18T03:12:10.024Z,16.54
2018-08-18T03:15:57.943Z,16.67
2018-08-18T03:19:22.399Z,16.79
2018-08-18T03:22:47.656Z,16.87
2018-08-18T03:26:12.096Z,17.04
2018-08-18T03:29:42.551Z,16.94
2018-08-18T03:33:07.100Z,16.89
2018-08-18T03:36:36.133Z,16.87
2018-08-18T03:40:00.585Z,16.98
2018-08-18T03:43:25.029Z,17.04
2018-08-18T03:46:49.477Z,16.92
2018-08-18T03:50:13.916Z,17.02
2018-08-18T03:53:38.340Z,16.97
2018-08-18T03:57:02.763Z,16.92
2018-08-18T04:00:27.180Z,16.62
2018-08-18T04:03:51.603Z,16.86
2018-08-18T04:07:16.065Z,16.96
2018-08-18T04:10:40.515Z,16.81
2018-08-18T04:14:04.945Z,16.80
2018-08-18T04:17:31.526Z,16.92
2018-08-18T04:20:55.896Z,16.70
2018-08-18T04:24:20.368Z,16.58
2018-08-18T04:27:48.101Z,16.52
2018-08-18T04:31:12.697Z,16.36
2018-08-18T04:34:37.121Z,16.33
2018-08-18T04:38:04.274Z,16.31
2018-08-18T04:41:28.863Z,16.24
2018-08-18T04:44:53.245Z,16.21
2018-08-18T04:48:30.793Z,16.18
2018-08-18T04:51:55.220Z,16.28
2018-08-18T04:55:19.838Z,16.21
2018-08-18T04:58:44.229Z,16.32
2018-08-18T05:02:08.647Z,16.28
2018-08-18T05:05:33.205Z,16.41
2018-08-18T05:08:59.069Z,16.34
2018-08-18T05:12:23.509Z,16.45
2018-08-18T05:15:47.921Z,16.52
2018-08-18T05:19:12.356Z,16.57
2018-08-18T05:22:36.737Z,16.66
2018-08-18T05:26:01.174Z,16.79
2018-08-18T05:29:25.576Z,16.91
2018-08-18T05:32:50.004Z,17.00
2018-08-18T05:36:14.443Z,17.12
2018-08-18T05:39:38.848Z,17.30
2018-08-18T05:43:03.907Z,17.45
2018-08-18T05:46:28.399Z,17.36
2018-08-18T05:49:54.835Z,17.57
2018-08-18T05:53:24.283Z,17.61
2018-08-18T05:56:48.752Z,17.85
2018-08-18T06:00:18.323Z,17.83
2018-08-18T06:03:42.805Z,17.93
2018-08-18T06:07:07.263Z,18.15
2018-08-18T06:10:31.702Z,18.18
2018-08-18T06:13:56.123Z,18.33
2018-08-18T06:17:25.697Z,18.41
2018-08-18T06:20:50.129Z,18.39
2018-08-18T06:24:14.572Z,18.56
2018-08-18T06:27:39.021Z,18.67
2018-08-18T06:31:03.633Z,18.92
2018-08-18T06:34:30.773Z,19.06
2018-08-18T06:38:01.766Z,19.15
2018-08-18T06:41:26.311Z,19.20
2018-08-18T06:44:50.657Z,19.34
2018-08-18T06:48:20.768Z,19.48
2018-08-18T06:51:45.275Z,19.37
2018-08-18T06:55:14.754Z,19.57
2018-08-18T06:58:39.091Z,19.59
2018-08-18T07:02:03.550Z,19.53
2018-08-18T07:05:28.017Z,19.71
2018-08-18T07:08:53.834Z,19.60
2018-08-18T07:12:18.262Z,19.88
2018-08-18T07:15:44.219Z,20.07
2018-08-18T07:19:08.699Z,20.23
2018-08-18T07:22:33.086Z,20.40
2018-08-18T07:25:59.613Z,20.48
2018-08-18T07:29:24.075Z,20.50
2018-08-18T07:32:48.454Z,20.55
2018-08-18T07:36:12.876Z,20.53
2018-08-18T07:39:37.318Z,20.83
2018-08-18T07:43:06.231Z,20.88
2018-08-18T07:46:30.759Z,20.90
2018-08-18T07:49:55.044Z,21.04
2018-08-18T07:53:19.611Z,20.86
2018-08-18T07:56:43.890Z,20.97
2018-08-18T08:00:08.496Z,20.96
2018-08-18T08:03:33.084Z,21.28
2018-08-18T08:06:57.555Z,21.20
2018-08-18T08:10:21.994Z,21.16
2018-08-18T08:13:46.437Z,21.24
2018-08-18T08:17:11.770Z,21.46
2018-08-18T08:20:36.156Z,21.67
2018-08-18T08:24:00.656Z,21.44
2018-08-18T08:27:25.076Z,21.74
2018-08-18T08:30:49.500Z,21.73
2018-08-18T08:34:13.946Z,22.07
2018-08-18T08:37:38.390Z,21.91
2018-08-18T08:41:02.842Z,22.37
2018-08-18T08:44:27.242Z,21.91
2018-08-18T08:47:51.751Z,22.21
2018-08-18T08:51:16.201Z,22.07
2018-08-18T08:54:41.214Z,22.02
2018-08-18T08:58:05.731Z,22.19
2018-08-18T09:01:30.134Z,22.69
2018-08-18T09:04:54.575Z,22.70
2018-08-18T09:08:18.974Z,22.95
2018-08-18T09:11:43.380Z,22.88
2018-08-18T09:15:09.620Z,23.32
2018-08-18T09:18:34.051Z,23.06
2018-08-18T09:22:01.767Z,23.54
2018-08-18T09:25:29.410Z,23.26
2018-08-18T09:28:53.842Z,23.83
2018-08-18T09:32:19.107Z,23.62
2018-08-18T09:36:03.628Z,23.57
2018-08-18T09:39:32.105Z,24.03
2018-08-18T09:42:56.732Z,24.03
2018-08-18T09:46:21.311Z,23.97
2018-08-18T09:49:45.763Z,24.08
2018-08-18T09:53:10.174Z,24.26
2018-08-18T09:56:34.599Z,24.90
2018-08-18T09:59:59.061Z,24.79
2018-08-18T10:03:23.460Z,24.98
2018-08-18T10:06:47.861Z,25.56
2018-08-18T10:10:13.959Z,25.35
2018-08-18T10:13:38.383Z,25.25
2018-08-18T10:17:02.997Z,25.68
2018-08-18T10:20:27.523Z,26.37
2018-08-18T10:23:52.016Z,25.67
2018-08-18T10:27:18.859Z,26.10
2018-08-18T10:30:43.277Z,27.53
2018-08-18T10:34:07.758Z,29.86
2018-08-18T10:37:32.169Z,30.31
2018-08-18T10:40:56.586Z,30.25
2018-08-18T10:44:21.018Z,29.63
2018-08-18T10:47:45.418Z,30.84
2018-08-18T10:52:23.878Z,31.32
2018-08-18T10:55:48.304Z,33.24
2018-08-18T10:59:20.631Z,33.34
2018-08-18T11:02:47.148Z,31.18
2018-08-18T11:06:11.650Z,31.27
2018-08-18T11:09:36.074Z,34.71
2018-08-18T11:13:00.581Z,35.84
2018-08-18T11:16:25.050Z,34.80
2018-08-18T11:19:49.458Z,35.30
2018-08-18T11:23:15.147Z,34.64
2018-08-18T11:26:40.989Z,36.89
2018-08-18T11:30:05.467Z,33.76
2018-08-18T11:33:39.233Z,34.80
2018-08-18T11:37:06.964Z,39.04
2018-08-18T11:40:31.404Z,38.47
2018-08-18T11:43:55.809Z,36.36
2018-08-18T11:47:20.282Z,36.66
2018-08-18T11:50:45.120Z,36.44
2018-08-18T11:54:09.618Z,34.73
2018-08-18T11:57:33.982Z,36.26
2018-08-18T12:00:59.790Z,36.66
2018-08-18T12:04:24.581Z,37.44
2018-08-18T12:07:51.991Z,35.77
2018-08-18T12:11:16.474Z,35.11
2018-08-18T12:14:40.886Z,35.12
2018-08-18T12:18:05.345Z,36.98
2018-08-18T12:21:34.031Z,38.05
2018-08-18T12:25:00.871Z,37.00
2018-08-18T12:28:48.918Z,38.86
2018-08-18T12:32:18.312Z,38.72
2018-08-18T12:35:42.919Z,37.72
2018-08-18T12:39:07.852Z,37.26
2018-08-18T12:42:32.314Z,37.78
2018-08-18T12:45:57.638Z,38.57
2018-08-18T12:49:22.080Z,38.32
2018-08-18T12:52:49.544Z,40.11
2018-08-18T12:56:17.376Z,39.43
2018-08-18T12:59:41.767Z,39.84
2018-08-18T13:03:06.169Z,39.77
2018-08-18T13:06:34.653Z,39.24
2018-08-18T13:10:17.969Z,42.03
2018-08-18T13:13:42.468Z,42.49
2018-08-18T13:17:07.029Z,41.14
2018-08-18T13:20:31.584Z,41.22
2018-08-18T13:23:56.048Z,38.83
2018-08-18T13:27:20.463Z,39.59
2018-08-18T13:30:44.985Z,39.74
2018-08-18T13:34:12.194Z,41.17
2018-08-18T13:37:36.687Z,40.34
2018-08-18T13:41:01.202Z,40.39
2018-08-18T13:44:30.858Z,41.65
2018-08-18T13:47:59.338Z,38.93
2018-08-18T13:51:24.185Z,39.31
2018-08-18T13:54:53.326Z,39.37
2018-08-18T13:58:17.820Z,41.09
2018-08-18T14:01:45.678Z,40.10
2018-08-18T14:05:20.939Z,41.48
2018-08-18T14:08:47.219Z,39.99
2018-08-18T14:12:15.478Z,40.35
2018-08-18T14:15:40.333Z,39.99
2018-08-18T14:19:04.736Z,37.24
2018-08-18T14:22:29.177Z,38.90
2018-08-18T14:25:53.751Z,39.77
2018-08-18T14:29:18.421Z,37.97
2018-08-18T14:32:42.876Z,37.88
2018-08-18T14:36:13.464Z,39.63
2018-08-18T14:39:40.764Z,40.43
2018-08-18T14:43:05.248Z,41.35
2018-08-18T14:46:29.743Z,39.87
2018-08-18T14:50:14.849Z,39.50
2018-08-18T14:53:43.284Z,39.55
2018-08-18T14:57:07.900Z,40.39
2018-08-18T15:00:32.800Z,39.10
2018-08-18T15:03:57.367Z,38.85
2018-08-18T15:07:21.773Z,40.52
2018-08-18T15:10:46.948Z,41.62
2018-08-18T15:14:11.526Z,40.36
2018-08-18T15:17:35.975Z,38.25
2018-08-18T15:21:00.477Z,41.05
2018-08-18T15:24:25.588Z,41.53
2018-08-18T15:27:50.043Z,40.16
2018-08-18T15:31:14.533Z,38.59
2018-08-18T15:34:38.985Z,37.40
2018-08-18T15:38:03.484Z,36.97
2018-08-18T15:41:27.868Z,36.82
2018-08-18T15:45:01.247Z,36.13
2018-08-18T15:48:26.059Z,36.79
2018-08-18T15:51:50.544Z,40.15
2018-08-18T15:55:14.952Z,40.85
2018-08-18T15:58:39.485Z,40.05
2018-08-18T16:02:03.940Z,39.54
2018-08-18T16:05:29.112Z,39.24
2018-08-18T16:08:54.269Z,38.92
2018-08-18T16:12:18.837Z,39.11
2018-08-18T16:15:43.344Z,38.98
2018-08-18T16:19:13.276Z,36.16
2018-08-18T16:22:37.731Z,35.64
2018-08-18T16:26:02.188Z,34.77
2018-08-18T16:29:26.633Z,32.54
2018-08-18T16:33:08.092Z,33.12
2018-08-18T16:36:37.697Z,33.49
2018-08-18T16:40:02.128Z,33.85
2018-08-18T16:43:26.587Z,33.96
2018-08-18T16:46:51.028Z,33.51
2018-08-18T16:50:15.560Z,33.40
2018-08-18T16:53:39.986Z,32.88
2018-08-18T16:57:04.364Z,32.96
2018-08-18T17:00:28.936Z,32.13
2018-08-18T17:03:53.542Z,31.58
2018-08-18T17:07:23.093Z,30.07
2018-08-18T17:10:47.588Z,30.61
2018-08-18T17:14:17.007Z,30.32
2018-08-18T17:17:41.473Z,30.56
2018-08-18T17:21:07.000Z,29.76
2018-08-18T17:24:31.731Z,29.51
2018-08-18T17:27:56.326Z,29.66
2018-08-18T17:31:20.780Z,29.08
2018-08-18T17:34:45.227Z,28.68
2018-08-18T17:38:09.750Z,28.48
2018-08-18T17:41:34.180Z,28.09
2018-08-18T17:44:59.992Z,28.00
2018-08-18T17:48:26.353Z,28.24
2018-08-18T17:52:22.086Z,28.20
2018-08-18T17:55:52.779Z,28.00
2018-08-18T17:59:17.895Z,27.79
2018-08-18T18:02:47.583Z,27.70
2018-08-18T18:06:13.092Z,27.89
2018-08-18T18:09:37.886Z,27.80
2018-08-18T18:13:05.632Z,27.59
2018-08-18T18:16:30.459Z,27.30
2018-08-18T18:19:57.492Z,27.22
2018-08-18T18:23:22.877Z,26.92
2018-08-18T18:26:50.490Z,26.91
2018-08-18T18:30:15.031Z,26.70
2018-08-18T18:33:39.798Z,26.67
2018-08-18T18:37:05.002Z,26.58
2018-08-18T18:40:33.833Z,25.91
2018-08-18T18:44:01.867Z,25.98
2018-08-18T18:47:26.436Z,25.72
2018-08-18T18:50:50.881Z,26.08
2018-08-18T18:54:15.352Z,25.79
2018-08-18T18:57:46.494Z,25.61
2018-08-18T19:01:11.003Z,25.58
2018-08-18T19:04:35.461Z,25.52
2018-08-18T19:08:12.951Z,25.41
2018-08-18T19:11:37.549Z,25.24
2018-08-18T19:15:01.995Z,25.04
2018-08-18T19:18:26.449Z,24.91
2018-08-18T19:21:51.298Z,24.74
2018-08-18T19:25:15.783Z,24.87
2018-08-18T19:28:40.346Z,24.79
2018-08-18T19:32:04.779Z,24.59
2018-08-18T19:35:34.254Z,24.54
2018-08-18T19:38:58.647Z,24.52
2018-08-18T19:42:23.088Z,24.38
2018-08-18T19:45:47.720Z,24.31
2018-08-18T19:49:12.247Z,24.18
2018-08-18T19:52:36.705Z,24.20
2018-08-18T19:56:02.032Z,24.06
2018-08-18T19:59:26.422Z,24.00
2018-08-18T20:03:12.645Z,23.98
2018-08-18T20:06:37.113Z,24.09
2018-08-18T20:10:01.666Z,23.62
2018-08-18T20:13:27.698Z,23.57
2018-08-18T20:16:52.189Z,23.63
2018-08-18T20:20:21.562Z,23.49
2018-08-18T20:23:46.061Z,23.54
2018-08-18T20:27:10.630Z,23.57
2018-08-18T20:30:35.063Z,23.32
2018-08-18T20:33:59.516Z,23.28
2018-08-18T20:37:23.942Z,23.17
2018-08-18T20:40:48.391Z,23.02
2018-08-18T20:44:12.836Z,22.99
2018-08-18T20:47:37.376Z,22.92
2018-08-18T20:51:01.854Z,23.06
2018-08-18T20:54:26.316Z,22.58
2018-08-18T20:57:50.747Z,22.72
2018-08-18T21:01:15.173Z,22.57
2018-08-18T21:04:41.619Z,22.74
2018-08-18T21:08:11.416Z,22.44
2018-08-18T21:11:35.858Z,22.28
2018-08-18T21:15:00.267Z,22.39
2018-08-18T21:18:24.676Z,22.39
2018-08-18T21:21:49.139Z,22.30
2018-08-18T21:25:14.362Z,22.30
2018-08-18T21:28:38.973Z,22.26
2018-08-18T21:32:03.383Z,21.87
2018-08-18T21:35:27.812Z,22.00
2018-08-18T21:38:52.375Z,21.89
2018-08-18T21:42:16.838Z,21.73
2018-08-18T21:49:33.283Z,21.75
2018-08-18T21:52:57.736Z,21.68
2018-08-18T21:56:22.150Z,21.62
2018-08-18T21:59:55.966Z,21.69
2018-08-18T22:03:20.392Z,21.51
2018-08-18T22:06:44.814Z,21.57
2018-08-18T22:10:10.751Z,21.52
2018-08-18T22:13:42.961Z,21.34
2018-08-18T22:17:07.638Z,21.41
2018-08-18T22:20:32.185Z,21.25
2018-08-18T22:23:58.643Z,21.42
2018-08-18T22:27:23.086Z,21.26
2018-08-18T22:30:47.538Z,21.20
2018-08-18T22:34:11.976Z,21.10
2018-08-18T22:37:36.420Z,21.18
2018-08-18T22:41:00.885Z,21.11
2018-08-18T22:44:25.414Z,21.09
2018-08-18T22:47:49.914Z,20.97
2018-08-18T22:51:14.334Z,20.99
2018-08-18T22:54:38.754Z,20.95
2018-08-18T22:58:03.265Z,20.98
2018-08-18T23:01:27.648Z,20.96
2018-08-18T23:04:52.059Z,20.81
2018-08-18T23:08:17.765Z,20.66
2018-08-18T23:11:42.175Z,20.64
2018-08-18T23:15:07.077Z,20.66
2018-08-18T23:18:31.516Z,20.61
2018-08-18T23:21:55.938Z,20.74
2018-08-18T23:25:20.390Z,20.59
2018-08-18T23:28:45.154Z,20.70
2018-08-18T23:32:16.364Z,20.53
2018-08-18T23:35:40.834Z,20.62
2018-08-18T23:39:06.521Z,20.67
2018-08-18T23:42:30.942Z,20.92
2018-08-18T23:45:55.511Z,20.85
2018-08-18T23:49:19.935Z,20.66
2018-08-18T23:52:56.671Z,20.64
2018-08-18T23:56:21.208Z,20.55
2018-08-18T23:59:46.192Z,20.46
